sensor_id;sensor_type;location;lat;lon;timestamp;P1;durP1;ratioP1;P2;durP2;ratioP2
13425;SDS011;6785;57.918;12.530;2022-11-11T00:01:06;26.20;;;5.90;;
13425;SDS011;6785;57.918;12.530;2022-11-11T00:03:38;29.73;;;6.03;;
13425;SDS011;6785;57.918;12.530;2022-11-11T00:06:07;23.90;;;5.30;;
13425;SDS011;6785;57.918;12.530;2022-11-11T00:08:37;25.73;;;5.67;;
13425;SDS011;6785;57.918;12.530;2022-11-11T00:11:05;27.70;;;5.40;;
13425;SDS011;6785;57.918;12.530;2022-11-11T00:13:36;34.63;;;5.70;;
13425;SDS011;6785;57.918;12.530;2022-11-11T00:16:04;34.20;;;6.33;;
13425;SDS011;6785;57.918;12.530;2022-11-11T00:18:33;29.83;;;5.30;;
13425;SDS011;6785;57.918;12.530;2022-11-11T00:21:18;25.90;;;4.87;;
13425;SDS011;6785;57.918;12.530;2022-11-11T00:24:21;34.73;;;5.53;;
13425;SDS011;6785;57.918;12.530;2022-11-11T00:27:09;23.40;;;4.57;;
13425;SDS011;6785;57.918;12.530;2022-11-11T00:29:38;23.83;;;4.93;;
13425;SDS011;6785;57.918;12.530;2022-11-11T00:32:06;27.60;;;5.70;;
13425;SDS011;6785;57.918;12.530;2022-11-11T00:34:52;25.13;;;5.63;;
13425;SDS011;6785;57.918;12.530;2022-11-11T00:37:38;25.93;;;4.53;;
13425;SDS011;6785;57.918;12.530;2022-11-11T00:40:07;32.60;;;5.37;;
13425;SDS011;6785;57.918;12.530;2022-11-11T00:42:37;27.23;;;5.47;;
13425;SDS011;6785;57.918;12.530;2022-11-11T00:45:05;25.63;;;5.07;;
13425;SDS011;6785;57.918;12.530;2022-11-11T00:47:34;29.90;;;4.90;;
13425;SDS011;6785;57.918;12.530;2022-11-11T00:50:20;28.30;;;5.17;;
13425;SDS011;6785;57.918;12.530;2022-11-11T00:53:08;29.53;;;5.23;;
13425;SDS011;6785;57.918;12.530;2022-11-11T00:55:36;34.63;;;6.37;;
13425;SDS011;6785;57.918;12.530;2022-11-11T00:58:05;26.47;;;5.67;;
13425;SDS011;6785;57.918;12.530;2022-11-11T01:00:32;21.70;;;5.27;;
13425;SDS011;6785;57.918;12.530;2022-11-11T01:02:59;27.20;;;5.80;;
13425;SDS011;6785;57.918;12.530;2022-11-11T01:05:26;24.70;;;4.70;;
13425;SDS011;6785;57.918;12.530;2022-11-11T01:07:54;34.30;;;5.23;;
13425;SDS011;6785;57.918;12.530;2022-11-11T01:10:21;23.97;;;5.90;;
13425;SDS011;6785;57.918;12.530;2022-11-11T01:13:04;33.30;;;5.53;;
13425;SDS011;6785;57.918;12.530;2022-11-11T01:15:40;27.43;;;5.70;;
13425;SDS011;6785;57.918;12.530;2022-11-11T01:18:10;28.97;;;5.00;;
13425;SDS011;6785;57.918;12.530;2022-11-11T01:20:40;24.37;;;5.27;;
13425;SDS011;6785;57.918;12.530;2022-11-11T01:23:09;31.70;;;6.20;;
13425;SDS011;6785;57.918;12.530;2022-11-11T01:25:39;24.47;;;5.83;;
13425;SDS011;6785;57.918;12.530;2022-11-11T01:28:09;32.23;;;6.20;;
13425;SDS011;6785;57.918;12.530;2022-11-11T01:30:37;22.87;;;5.50;;
13425;SDS011;6785;57.918;12.530;2022-11-11T01:33:04;29.43;;;6.33;;
13425;SDS011;6785;57.918;12.530;2022-11-11T01:35:31;34.70;;;6.10;;
13425;SDS011;6785;57.918;12.530;2022-11-11T01:38:03;26.73;;;5.77;;
13425;SDS011;6785;57.918;12.530;2022-11-11T01:40:38;30.00;;;5.67;;
13425;SDS011;6785;57.918;12.530;2022-11-11T01:43:16;24.10;;;6.13;;
13425;SDS011;6785;57.918;12.530;2022-11-11T01:45:47;19.23;;;5.27;;
13425;SDS011;6785;57.918;12.530;2022-11-11T01:48:21;28.60;;;5.90;;
13425;SDS011;6785;57.918;12.530;2022-11-11T01:51:17;25.67;;;5.73;;
13425;SDS011;6785;57.918;12.530;2022-11-11T01:53:54;25.30;;;6.07;;
13425;SDS011;6785;57.918;12.530;2022-11-11T01:56:27;27.70;;;5.40;;
13425;SDS011;6785;57.918;12.530;2022-11-11T01:58:57;34.20;;;6.07;;
13425;SDS011;6785;57.918;12.530;2022-11-11T02:01:32;32.83;;;6.87;;
13425;SDS011;6785;57.918;12.530;2022-11-11T02:04:01;23.50;;;5.30;;
13425;SDS011;6785;57.918;12.530;2022-11-11T02:06:49;29.67;;;6.17;;
13425;SDS011;6785;57.918;12.530;2022-11-11T02:09:20;35.23;;;5.43;;
13425;SDS011;6785;57.918;12.530;2022-11-11T02:11:50;31.57;;;6.00;;
13425;SDS011;6785;57.918;12.530;2022-11-11T02:14:38;29.67;;;4.87;;
13425;SDS011;6785;57.918;12.530;2022-11-11T02:17:11;22.00;;;5.47;;
13425;SDS011;6785;57.918;12.530;2022-11-11T02:19:43;23.63;;;5.67;;
13425;SDS011;6785;57.918;12.530;2022-11-11T02:22:16;32.00;;;5.67;;
13425;SDS011;6785;57.918;12.530;2022-11-11T02:24:53;24.43;;;5.50;;
13425;SDS011;6785;57.918;12.530;2022-11-11T02:27:23;27.67;;;5.40;;
13425;SDS011;6785;57.918;12.530;2022-11-11T02:29:54;25.13;;;5.43;;
13425;SDS011;6785;57.918;12.530;2022-11-11T02:32:25;26.60;;;4.80;;
13425;SDS011;6785;57.918;12.530;2022-11-11T02:34:52;31.83;;;6.00;;
13425;SDS011;6785;57.918;12.530;2022-11-11T02:37:20;32.17;;;5.60;;
13425;SDS011;6785;57.918;12.530;2022-11-11T02:39:50;24.53;;;5.87;;
13425;SDS011;6785;57.918;12.530;2022-11-11T02:42:25;28.23;;;6.37;;
13425;SDS011;6785;57.918;12.530;2022-11-11T02:44:52;28.40;;;5.63;;
13425;SDS011;6785;57.918;12.530;2022-11-11T02:47:22;25.87;;;5.07;;
13425;SDS011;6785;57.918;12.530;2022-11-11T02:49:51;27.87;;;6.27;;
13425;SDS011;6785;57.918;12.530;2022-11-11T02:52:18;33.00;;;6.50;;
13425;SDS011;6785;57.918;12.530;2022-11-11T02:54:46;25.50;;;5.30;;
13425;SDS011;6785;57.918;12.530;2022-11-11T02:57:15;29.63;;;6.43;;
13425;SDS011;6785;57.918;12.530;2022-11-11T02:59:42;29.77;;;5.70;;
13425;SDS011;6785;57.918;12.530;2022-11-11T03:02:09;29.90;;;6.87;;
13425;SDS011;6785;57.918;12.530;2022-11-11T03:04:37;32.13;;;6.47;;
13425;SDS011;6785;57.918;12.530;2022-11-11T03:07:04;30.47;;;6.17;;
13425;SDS011;6785;57.918;12.530;2022-11-11T03:09:31;32.73;;;6.40;;
13425;SDS011;6785;57.918;12.530;2022-11-11T03:11:59;30.20;;;5.50;;
13425;SDS011;6785;57.918;12.530;2022-11-11T03:14:27;29.73;;;6.07;;
13425;SDS011;6785;57.918;12.530;2022-11-11T03:16:54;28.07;;;5.93;;
13425;SDS011;6785;57.918;12.530;2022-11-11T03:19:38;24.23;;;6.00;;
13425;SDS011;6785;57.918;12.530;2022-11-11T03:22:05;27.13;;;6.17;;
13425;SDS011;6785;57.918;12.530;2022-11-11T03:24:31;32.30;;;5.83;;
13425;SDS011;6785;57.918;12.530;2022-11-11T03:27:16;25.63;;;6.30;;
13425;SDS011;6785;57.918;12.530;2022-11-11T03:29:44;32.47;;;6.77;;
13425;SDS011;6785;57.918;12.530;2022-11-11T03:32:11;30.43;;;6.77;;
13425;SDS011;6785;57.918;12.530;2022-11-11T03:34:38;26.40;;;5.57;;
13425;SDS011;6785;57.918;12.530;2022-11-11T03:37:06;30.30;;;5.93;;
13425;SDS011;6785;57.918;12.530;2022-11-11T03:39:52;21.93;;;5.80;;
13425;SDS011;6785;57.918;12.530;2022-11-11T03:42:19;28.00;;;5.70;;
13425;SDS011;6785;57.918;12.530;2022-11-11T03:44:48;25.13;;;6.27;;
13425;SDS011;6785;57.918;12.530;2022-11-11T03:47:15;29.03;;;6.23;;
13425;SDS011;6785;57.918;12.530;2022-11-11T03:49:42;34.27;;;6.20;;
13425;SDS011;6785;57.918;12.530;2022-11-11T03:52:10;33.30;;;6.43;;
13425;SDS011;6785;57.918;12.530;2022-11-11T03:54:38;31.50;;;6.03;;
13425;SDS011;6785;57.918;12.530;2022-11-11T03:57:05;32.10;;;6.20;;
13425;SDS011;6785;57.918;12.530;2022-11-11T03:59:51;31.40;;;6.60;;
13425;SDS011;6785;57.918;12.530;2022-11-11T04:02:18;28.30;;;6.03;;
13425;SDS011;6785;57.918;12.530;2022-11-11T04:05:02;24.67;;;6.27;;
13425;SDS011;6785;57.918;12.530;2022-11-11T04:07:49;28.73;;;5.73;;
13425;SDS011;6785;57.918;12.530;2022-11-11T04:10:34;31.33;;;5.97;;
13425;SDS011;6785;57.918;12.530;2022-11-11T04:13:01;24.93;;;6.33;;
13425;SDS011;6785;57.918;12.530;2022-11-11T04:15:49;28.13;;;5.80;;
13425;SDS011;6785;57.918;12.530;2022-11-11T04:18:31;29.03;;;5.93;;
13425;SDS011;6785;57.918;12.530;2022-11-11T04:21:16;29.70;;;6.20;;
13425;SDS011;6785;57.918;12.530;2022-11-11T04:24:00;32.47;;;7.03;;
13425;SDS011;6785;57.918;12.530;2022-11-11T04:26:27;30.60;;;6.00;;
13425;SDS011;6785;57.918;12.530;2022-11-11T04:28:53;38.20;;;6.50;;
13425;SDS011;6785;57.918;12.530;2022-11-11T04:31:39;26.77;;;6.90;;
13425;SDS011;6785;57.918;12.530;2022-11-11T04:34:33;25.73;;;6.13;;
13425;SDS011;6785;57.918;12.530;2022-11-11T04:36:59;25.80;;;5.57;;
13425;SDS011;6785;57.918;12.530;2022-11-11T04:39:26;30.43;;;6.27;;
13425;SDS011;6785;57.918;12.530;2022-11-11T04:42:10;36.07;;;6.47;;
13425;SDS011;6785;57.918;12.530;2022-11-11T04:44:37;22.07;;;5.73;;
13425;SDS011;6785;57.918;12.530;2022-11-11T04:47:23;31.47;;;6.63;;
13425;SDS011;6785;57.918;12.530;2022-11-11T04:49:51;32.20;;;5.90;;
13425;SDS011;6785;57.918;12.530;2022-11-11T04:52:18;28.93;;;5.83;;
13425;SDS011;6785;57.918;12.530;2022-11-11T04:54:54;29.03;;;5.87;;
13425;SDS011;6785;57.918;12.530;2022-11-11T04:57:40;31.07;;;6.13;;
13425;SDS011;6785;57.918;12.530;2022-11-11T05:00:09;28.17;;;6.77;;
13425;SDS011;6785;57.918;12.530;2022-11-11T05:02:39;27.50;;;6.57;;
13425;SDS011;6785;57.918;12.530;2022-11-11T05:05:25;25.60;;;5.80;;
13425;SDS011;6785;57.918;12.530;2022-11-11T05:07:53;38.53;;;7.17;;
13425;SDS011;6785;57.918;12.530;2022-11-11T05:10:38;33.63;;;6.40;;
13425;SDS011;6785;57.918;12.530;2022-11-11T05:13:05;27.23;;;6.93;;
13425;SDS011;6785;57.918;12.530;2022-11-11T05:15:50;31.73;;;6.63;;
13425;SDS011;6785;57.918;12.530;2022-11-11T05:18:36;30.70;;;6.13;;
13425;SDS011;6785;57.918;12.530;2022-11-11T05:21:21;32.33;;;6.17;;
13425;SDS011;6785;57.918;12.530;2022-11-11T05:23:52;27.93;;;6.37;;
13425;SDS011;6785;57.918;12.530;2022-11-11T05:26:37;27.70;;;5.97;;
13425;SDS011;6785;57.918;12.530;2022-11-11T05:29:04;31.87;;;7.17;;
13425;SDS011;6785;57.918;12.530;2022-11-11T05:31:31;34.73;;;6.23;;
13425;SDS011;6785;57.918;12.530;2022-11-11T05:33:59;29.73;;;5.93;;
13425;SDS011;6785;57.918;12.530;2022-11-11T05:36:26;22.97;;;5.40;;
13425;SDS011;6785;57.918;12.530;2022-11-11T05:38:53;30.67;;;6.67;;
13425;SDS011;6785;57.918;12.530;2022-11-11T05:41:20;31.57;;;5.53;;
13425;SDS011;6785;57.918;12.530;2022-11-11T05:43:48;19.40;;;5.03;;
13425;SDS011;6785;57.918;12.530;2022-11-11T05:46:15;22.17;;;5.27;;
13425;SDS011;6785;57.918;12.530;2022-11-11T05:48:42;21.60;;;5.83;;
13425;SDS011;6785;57.918;12.530;2022-11-11T05:51:24;20.70;;;4.23;;
13425;SDS011;6785;57.918;12.530;2022-11-11T05:53:57;22.10;;;4.97;;
13425;SDS011;6785;57.918;12.530;2022-11-11T05:56:24;20.77;;;4.90;;
13425;SDS011;6785;57.918;12.530;2022-11-11T05:58:51;30.67;;;5.80;;
13425;SDS011;6785;57.918;12.530;2022-11-11T06:01:18;19.50;;;4.93;;
13425;SDS011;6785;57.918;12.530;2022-11-11T06:03:45;21.83;;;5.63;;
13425;SDS011;6785;57.918;12.530;2022-11-11T06:06:12;18.63;;;4.93;;
13425;SDS011;6785;57.918;12.530;2022-11-11T06:08:41;20.33;;;4.67;;
13425;SDS011;6785;57.918;12.530;2022-11-11T06:11:08;17.73;;;4.60;;
13425;SDS011;6785;57.918;12.530;2022-11-11T06:13:35;20.87;;;5.03;;
13425;SDS011;6785;57.918;12.530;2022-11-11T06:16:02;17.00;;;4.80;;
13425;SDS011;6785;57.918;12.530;2022-11-11T06:18:30;23.43;;;4.90;;
13425;SDS011;6785;57.918;12.530;2022-11-11T06:20:58;24.50;;;4.60;;
13425;SDS011;6785;57.918;12.530;2022-11-11T06:23:27;18.70;;;4.17;;
13425;SDS011;6785;57.918;12.530;2022-11-11T06:25:56;20.70;;;4.90;;
13425;SDS011;6785;57.918;12.530;2022-11-11T06:28:43;13.37;;;4.00;;
13425;SDS011;6785;57.918;12.530;2022-11-11T06:31:32;10.20;;;3.67;;
13425;SDS011;6785;57.918;12.530;2022-11-11T06:34:29;20.17;;;4.63;;
13425;SDS011;6785;57.918;12.530;2022-11-11T06:36:56;15.60;;;4.23;;
13425;SDS011;6785;57.918;12.530;2022-11-11T06:39:23;15.13;;;4.23;;
13425;SDS011;6785;57.918;12.530;2022-11-11T06:41:51;17.00;;;4.73;;
13425;SDS011;6785;57.918;12.530;2022-11-11T06:44:18;22.23;;;4.30;;
13425;SDS011;6785;57.918;12.530;2022-11-11T06:46:45;21.73;;;5.00;;
13425;SDS011;6785;57.918;12.530;2022-11-11T06:49:12;20.40;;;4.70;;
13425;SDS011;6785;57.918;12.530;2022-11-11T06:51:39;17.60;;;4.50;;
13425;SDS011;6785;57.918;12.530;2022-11-11T06:54:06;17.77;;;4.57;;
13425;SDS011;6785;57.918;12.530;2022-11-11T06:56:33;14.07;;;4.40;;
13425;SDS011;6785;57.918;12.530;2022-11-11T06:59:01;24.70;;;5.03;;
13425;SDS011;6785;57.918;12.530;2022-11-11T07:01:28;21.53;;;4.47;;
13425;SDS011;6785;57.918;12.530;2022-11-11T07:03:55;18.37;;;4.47;;
13425;SDS011;6785;57.918;12.530;2022-11-11T07:06:22;22.70;;;4.80;;
13425;SDS011;6785;57.918;12.530;2022-11-11T07:08:49;17.37;;;4.03;;
13425;SDS011;6785;57.918;12.530;2022-11-11T07:11:16;16.13;;;4.20;;
13425;SDS011;6785;57.918;12.530;2022-11-11T07:13:43;18.43;;;4.93;;
13425;SDS011;6785;57.918;12.530;2022-11-11T07:16:11;17.40;;;4.43;;
13425;SDS011;6785;57.918;12.530;2022-11-11T07:18:38;22.10;;;4.27;;
13425;SDS011;6785;57.918;12.530;2022-11-11T07:21:05;19.60;;;4.40;;
13425;SDS011;6785;57.918;12.530;2022-11-11T07:23:32;19.00;;;4.40;;
13425;SDS011;6785;57.918;12.530;2022-11-11T07:25:59;17.47;;;4.50;;
13425;SDS011;6785;57.918;12.530;2022-11-11T07:28:27;20.97;;;5.37;;
13425;SDS011;6785;57.918;12.530;2022-11-11T07:30:54;13.90;;;4.57;;
13425;SDS011;6785;57.918;12.530;2022-11-11T07:33:22;16.37;;;4.00;;
13425;SDS011;6785;57.918;12.530;2022-11-11T07:35:49;24.40;;;5.23;;
13425;SDS011;6785;57.918;12.530;2022-11-11T07:38:16;15.43;;;4.93;;
13425;SDS011;6785;57.918;12.530;2022-11-11T07:40:43;24.87;;;5.17;;
13425;SDS011;6785;57.918;12.530;2022-11-11T07:43:10;25.77;;;5.17;;
13425;SDS011;6785;57.918;12.530;2022-11-11T07:45:37;27.80;;;4.73;;
13425;SDS011;6785;57.918;12.530;2022-11-11T07:48:04;22.03;;;5.83;;
13425;SDS011;6785;57.918;12.530;2022-11-11T07:50:33;25.47;;;5.23;;
13425;SDS011;6785;57.918;12.530;2022-11-11T07:53:00;32.43;;;6.67;;
13425;SDS011;6785;57.918;12.530;2022-11-11T07:55:27;25.30;;;6.23;;
13425;SDS011;6785;57.918;12.530;2022-11-11T07:57:54;26.77;;;5.77;;
13425;SDS011;6785;57.918;12.530;2022-11-11T08:00:23;24.67;;;5.27;;
13425;SDS011;6785;57.918;12.530;2022-11-11T08:02:50;24.10;;;5.03;;
13425;SDS011;6785;57.918;12.530;2022-11-11T08:05:17;25.67;;;6.33;;
13425;SDS011;6785;57.918;12.530;2022-11-11T08:07:45;22.90;;;5.83;;
13425;SDS011;6785;57.918;12.530;2022-11-11T08:10:12;18.27;;;5.43;;
13425;SDS011;6785;57.918;12.530;2022-11-11T08:12:39;24.43;;;5.70;;
13425;SDS011;6785;57.918;12.530;2022-11-11T08:15:24;23.40;;;5.47;;
13425;SDS011;6785;57.918;12.530;2022-11-11T08:17:51;27.67;;;6.27;;
13425;SDS011;6785;57.918;12.530;2022-11-11T08:20:18;24.10;;;5.10;;
13425;SDS011;6785;57.918;12.530;2022-11-11T08:22:46;29.50;;;5.63;;
13425;SDS011;6785;57.918;12.530;2022-11-11T08:25:16;20.93;;;4.67;;
13425;SDS011;6785;57.918;12.530;2022-11-11T08:27:43;21.57;;;5.40;;
13425;SDS011;6785;57.918;12.530;2022-11-11T08:30:11;24.20;;;5.10;;
13425;SDS011;6785;57.918;12.530;2022-11-11T08:32:39;24.10;;;5.70;;
13425;SDS011;6785;57.918;12.530;2022-11-11T08:35:06;26.20;;;5.53;;
13425;SDS011;6785;57.918;12.530;2022-11-11T08:37:33;24.50;;;5.10;;
13425;SDS011;6785;57.918;12.530;2022-11-11T08:40:02;27.70;;;5.60;;
13425;SDS011;6785;57.918;12.530;2022-11-11T08:42:30;23.00;;;5.33;;
13425;SDS011;6785;57.918;12.530;2022-11-11T08:44:57;18.20;;;5.33;;
13425;SDS011;6785;57.918;12.530;2022-11-11T08:47:24;23.70;;;5.50;;
13425;SDS011;6785;57.918;12.530;2022-11-11T08:49:51;25.50;;;5.70;;
13425;SDS011;6785;57.918;12.530;2022-11-11T08:52:18;27.03;;;6.00;;
13425;SDS011;6785;57.918;12.530;2022-11-11T08:54:45;25.63;;;5.20;;
13425;SDS011;6785;57.918;12.530;2022-11-11T08:57:13;23.37;;;5.23;;
13425;SDS011;6785;57.918;12.530;2022-11-11T08:59:40;27.97;;;5.83;;
13425;SDS011;6785;57.918;12.530;2022-11-11T09:02:09;20.37;;;5.70;;
13425;SDS011;6785;57.918;12.530;2022-11-11T09:04:37;21.33;;;5.53;;
13425;SDS011;6785;57.918;12.530;2022-11-11T09:07:04;23.33;;;5.70;;
13425;SDS011;6785;57.918;12.530;2022-11-11T09:09:33;18.83;;;5.20;;
13425;SDS011;6785;57.918;12.530;2022-11-11T09:12:00;17.43;;;4.70;;
13425;SDS011;6785;57.918;12.530;2022-11-11T09:14:29;24.53;;;5.30;;
13425;SDS011;6785;57.918;12.530;2022-11-11T09:16:56;25.70;;;5.27;;
13425;SDS011;6785;57.918;12.530;2022-11-11T09:19:23;17.93;;;5.17;;
13425;SDS011;6785;57.918;12.530;2022-11-11T09:21:50;22.47;;;5.13;;
13425;SDS011;6785;57.918;12.530;2022-11-11T09:24:17;21.60;;;5.33;;
13425;SDS011;6785;57.918;12.530;2022-11-11T09:26:45;20.83;;;4.67;;
13425;SDS011;6785;57.918;12.530;2022-11-11T09:29:14;23.63;;;5.37;;
13425;SDS011;6785;57.918;12.530;2022-11-11T09:31:43;21.73;;;4.37;;
13425;SDS011;6785;57.918;12.530;2022-11-11T09:34:10;18.10;;;4.60;;
13425;SDS011;6785;57.918;12.530;2022-11-11T09:36:37;21.13;;;4.97;;
13425;SDS011;6785;57.918;12.530;2022-11-11T09:39:04;19.60;;;4.47;;
13425;SDS011;6785;57.918;12.530;2022-11-11T09:41:34;20.97;;;4.70;;
13425;SDS011;6785;57.918;12.530;2022-11-11T09:44:21;17.67;;;4.07;;
13425;SDS011;6785;57.918;12.530;2022-11-11T09:47:10;20.33;;;4.57;;
13425;SDS011;6785;57.918;12.530;2022-11-11T09:49:57;22.13;;;4.33;;
13425;SDS011;6785;57.918;12.530;2022-11-11T09:52:28;19.90;;;4.40;;
13425;SDS011;6785;57.918;12.530;2022-11-11T09:55:01;17.80;;;4.20;;
13425;SDS011;6785;57.918;12.530;2022-11-11T09:57:39;22.17;;;5.30;;
13425;SDS011;6785;57.918;12.530;2022-11-11T10:00:14;17.23;;;4.30;;
13425;SDS011;6785;57.918;12.530;2022-11-11T10:02:48;11.77;;;4.30;;
13425;SDS011;6785;57.918;12.530;2022-11-11T10:05:19;28.73;;;5.10;;
13425;SDS011;6785;57.918;12.530;2022-11-11T10:07:52;21.40;;;4.67;;
13425;SDS011;6785;57.918;12.530;2022-11-11T10:10:28;23.53;;;5.03;;
13425;SDS011;6785;57.918;12.530;2022-11-11T10:13:06;23.13;;;4.63;;
13425;SDS011;6785;57.918;12.530;2022-11-11T10:15:40;24.13;;;5.33;;
13425;SDS011;6785;57.918;12.530;2022-11-11T10:18:24;17.70;;;4.93;;
13425;SDS011;6785;57.918;12.530;2022-11-11T10:21:18;21.20;;;5.00;;
13425;SDS011;6785;57.918;12.530;2022-11-11T10:23:52;22.40;;;5.07;;
13425;SDS011;6785;57.918;12.530;2022-11-11T10:26:28;29.07;;;5.50;;
13425;SDS011;6785;57.918;12.530;2022-11-11T10:29:02;25.80;;;5.33;;
13425;SDS011;6785;57.918;12.530;2022-11-11T10:31:38;19.53;;;5.87;;
13425;SDS011;6785;57.918;12.530;2022-11-11T10:34:10;20.03;;;5.50;;
13425;SDS011;6785;57.918;12.530;2022-11-11T10:36:41;21.60;;;5.23;;
13425;SDS011;6785;57.918;12.530;2022-11-11T10:39:14;25.07;;;5.40;;
13425;SDS011;6785;57.918;12.530;2022-11-11T10:41:49;28.53;;;5.27;;
13425;SDS011;6785;57.918;12.530;2022-11-11T10:44:18;24.30;;;5.73;;
13425;SDS011;6785;57.918;12.530;2022-11-11T10:46:50;23.83;;;5.47;;
13425;SDS011;6785;57.918;12.530;2022-11-11T10:49:31;23.83;;;5.30;;
13425;SDS011;6785;57.918;12.530;2022-11-11T10:52:05;29.83;;;5.80;;
13425;SDS011;6785;57.918;12.530;2022-11-11T10:54:38;31.37;;;5.80;;
13425;SDS011;6785;57.918;12.530;2022-11-11T10:57:14;32.10;;;6.23;;
13425;SDS011;6785;57.918;12.530;2022-11-11T10:59:52;26.03;;;6.13;;
13425;SDS011;6785;57.918;12.530;2022-11-11T11:02:28;27.17;;;5.30;;
13425;SDS011;6785;57.918;12.530;2022-11-11T11:05:07;21.50;;;5.10;;
13425;SDS011;6785;57.918;12.530;2022-11-11T11:07:42;29.70;;;6.30;;
13425;SDS011;6785;57.918;12.530;2022-11-11T11:10:16;25.90;;;6.00;;
13425;SDS011;6785;57.918;12.530;2022-11-11T11:12:50;38.27;;;6.97;;
13425;SDS011;6785;57.918;12.530;2022-11-11T11:15:25;25.37;;;5.53;;
13425;SDS011;6785;57.918;12.530;2022-11-11T11:17:57;25.03;;;5.70;;
13425;SDS011;6785;57.918;12.530;2022-11-11T11:20:32;20.13;;;5.10;;
13425;SDS011;6785;57.918;12.530;2022-11-11T11:22:59;24.87;;;5.50;;
13425;SDS011;6785;57.918;12.530;2022-11-11T11:25:28;20.30;;;5.87;;
13425;SDS011;6785;57.918;12.530;2022-11-11T11:28:04;29.57;;;5.27;;
13425;SDS011;6785;57.918;12.530;2022-11-11T11:30:34;25.67;;;5.77;;
13425;SDS011;6785;57.918;12.530;2022-11-11T11:33:02;20.57;;;5.17;;
13425;SDS011;6785;57.918;12.530;2022-11-11T11:35:42;26.53;;;5.87;;
13425;SDS011;6785;57.918;12.530;2022-11-11T11:38:11;28.23;;;4.77;;
13425;SDS011;6785;57.918;12.530;2022-11-11T11:40:45;26.90;;;5.27;;
13425;SDS011;6785;57.918;12.530;2022-11-11T11:43:23;30.57;;;5.77;;
13425;SDS011;6785;57.918;12.530;2022-11-11T11:46:00;27.73;;;5.37;;
13425;SDS011;6785;57.918;12.530;2022-11-11T11:48:34;20.63;;;5.17;;
13425;SDS011;6785;57.918;12.530;2022-11-11T11:51:26;23.17;;;5.00;;
13425;SDS011;6785;57.918;12.530;2022-11-11T11:54:08;25.37;;;5.33;;
13425;SDS011;6785;57.918;12.530;2022-11-11T11:56:51;21.80;;;5.83;;
13425;SDS011;6785;57.918;12.530;2022-11-11T11:59:25;19.60;;;5.37;;
13425;SDS011;6785;57.918;12.530;2022-11-11T12:02:03;25.77;;;5.47;;
13425;SDS011;6785;57.918;12.530;2022-11-11T12:05:05;20.67;;;5.00;;
13425;SDS011;6785;57.918;12.530;2022-11-11T12:07:47;26.93;;;5.20;;
13425;SDS011;6785;57.918;12.530;2022-11-11T12:10:34;21.90;;;4.97;;
13425;SDS011;6785;57.918;12.530;2022-11-11T12:13:16;23.70;;;5.30;;
13425;SDS011;6785;57.918;12.530;2022-11-11T12:15:58;21.33;;;5.10;;
13425;SDS011;6785;57.918;12.530;2022-11-11T12:18:49;23.23;;;5.37;;
13425;SDS011;6785;57.918;12.530;2022-11-11T12:21:33;20.77;;;5.03;;
13425;SDS011;6785;57.918;12.530;2022-11-11T12:24:19;27.00;;;5.37;;
13425;SDS011;6785;57.918;12.530;2022-11-11T12:30:06;19.97;;;4.63;;
13425;SDS011;6785;57.918;12.530;2022-11-11T12:32:47;18.77;;;4.70;;
13425;SDS011;6785;57.918;12.530;2022-11-11T12:35:45;20.50;;;4.43;;
13425;SDS011;6785;57.918;12.530;2022-11-11T12:38:31;19.37;;;4.40;;
13425;SDS011;6785;57.918;12.530;2022-11-11T12:41:26;25.50;;;5.27;;
13425;SDS011;6785;57.918;12.530;2022-11-11T12:44:11;25.03;;;5.20;;
13425;SDS011;6785;57.918;12.530;2022-11-11T12:46:41;22.63;;;5.13;;
13425;SDS011;6785;57.918;12.530;2022-11-11T12:49:29;18.63;;;4.57;;
13425;SDS011;6785;57.918;12.530;2022-11-11T12:52:16;27.00;;;5.03;;
13425;SDS011;6785;57.918;12.530;2022-11-11T12:55:05;21.20;;;5.27;;
13425;SDS011;6785;57.918;12.530;2022-11-11T12:57:53;28.53;;;6.13;;
13425;SDS011;6785;57.918;12.530;2022-11-11T13:00:36;21.20;;;5.40;;
13425;SDS011;6785;57.918;12.530;2022-11-11T13:06:35;23.83;;;5.33;;
13425;SDS011;6785;57.918;12.530;2022-11-11T13:09:36;27.33;;;4.63;;
13425;SDS011;6785;57.918;12.530;2022-11-11T13:12:23;20.60;;;4.90;;
13425;SDS011;6785;57.918;12.530;2022-11-11T13:15:02;20.70;;;4.73;;
13425;SDS011;6785;57.918;12.530;2022-11-11T13:17:39;24.43;;;5.00;;
13425;SDS011;6785;57.918;12.530;2022-11-11T13:20:11;24.37;;;5.37;;
13425;SDS011;6785;57.918;12.530;2022-11-11T13:22:50;15.87;;;4.70;;
13425;SDS011;6785;57.918;12.530;2022-11-11T13:25:20;23.33;;;5.07;;
13425;SDS011;6785;57.918;12.530;2022-11-11T13:27:50;22.73;;;4.97;;
13425;SDS011;6785;57.918;12.530;2022-11-11T13:33:19;28.83;;;5.47;;
13425;SDS011;6785;57.918;12.530;2022-11-11T13:35:50;23.73;;;4.63;;
13425;SDS011;6785;57.918;12.530;2022-11-11T13:38:22;20.63;;;5.13;;
13425;SDS011;6785;57.918;12.530;2022-11-11T13:40:55;20.20;;;5.00;;
13425;SDS011;6785;57.918;12.530;2022-11-11T13:43:28;28.47;;;6.00;;
13425;SDS011;6785;57.918;12.530;2022-11-11T13:46:01;23.17;;;4.90;;
13425;SDS011;6785;57.918;12.530;2022-11-11T13:48:31;18.80;;;4.77;;
13425;SDS011;6785;57.918;12.530;2022-11-11T13:51:13;25.30;;;4.97;;
13425;SDS011;6785;57.918;12.530;2022-11-11T13:53:50;21.17;;;4.77;;
13425;SDS011;6785;57.918;12.530;2022-11-11T13:56:21;24.47;;;4.70;;
13425;SDS011;6785;57.918;12.530;2022-11-11T13:58:53;24.80;;;5.30;;
13425;SDS011;6785;57.918;12.530;2022-11-11T14:01:24;14.83;;;4.97;;
13425;SDS011;6785;57.918;12.530;2022-11-11T14:04:01;21.33;;;5.20;;
13425;SDS011;6785;57.918;12.530;2022-11-11T14:06:48;28.13;;;5.83;;
13425;SDS011;6785;57.918;12.530;2022-11-11T14:15:05;24.23;;;5.37;;
13425;SDS011;6785;57.918;12.530;2022-11-11T14:18:09;23.80;;;4.47;;
13425;SDS011;6785;57.918;12.530;2022-11-11T14:21:01;23.73;;;5.23;;
13425;SDS011;6785;57.918;12.530;2022-11-11T14:23:31;28.77;;;5.20;;
13425;SDS011;6785;57.918;12.530;2022-11-11T14:26:14;24.50;;;5.00;;
13425;SDS011;6785;57.918;12.530;2022-11-11T14:28:52;20.33;;;4.97;;
13425;SDS011;6785;57.918;12.530;2022-11-11T14:34:38;17.60;;;4.33;;
13425;SDS011;6785;57.918;12.530;2022-11-11T14:37:38;22.53;;;5.13;;
13425;SDS011;6785;57.918;12.530;2022-11-11T14:40:23;22.33;;;5.17;;
13425;SDS011;6785;57.918;12.530;2022-11-11T14:42:52;25.73;;;4.90;;
13425;SDS011;6785;57.918;12.530;2022-11-11T14:54:22;17.47;;;4.40;;
13425;SDS011;6785;57.918;12.530;2022-11-11T14:57:22;18.53;;;4.37;;
13425;SDS011;6785;57.918;12.530;2022-11-11T14:59:51;28.67;;;5.47;;
13425;SDS011;6785;57.918;12.530;2022-11-11T15:02:24;18.63;;;4.90;;
13425;SDS011;6785;57.918;12.530;2022-11-11T15:04:57;27.27;;;5.53;;
13425;SDS011;6785;57.918;12.530;2022-11-11T15:07:33;22.13;;;4.87;;
13425;SDS011;6785;57.918;12.530;2022-11-11T15:10:19;22.33;;;5.07;;
13425;SDS011;6785;57.918;12.530;2022-11-11T15:16:21;23.23;;;5.20;;
13425;SDS011;6785;57.918;12.530;2022-11-11T15:19:05;12.70;;;4.10;;
13425;SDS011;6785;57.918;12.530;2022-11-11T15:22:01;25.67;;;5.37;;
13425;SDS011;6785;57.918;12.530;2022-11-11T15:24:45;23.30;;;5.43;;
13425;SDS011;6785;57.918;12.530;2022-11-11T15:27:26;24.57;;;4.77;;
13425;SDS011;6785;57.918;12.530;2022-11-11T15:30:08;22.80;;;5.33;;
13425;SDS011;6785;57.918;12.530;2022-11-11T15:32:45;18.57;;;4.93;;
13425;SDS011;6785;57.918;12.530;2022-11-11T15:35:30;23.57;;;4.80;;
13425;SDS011;6785;57.918;12.530;2022-11-11T15:38:05;23.17;;;4.80;;
13425;SDS011;6785;57.918;12.530;2022-11-11T15:40:43;25.67;;;5.00;;
13425;SDS011;6785;57.918;12.530;2022-11-11T15:43:17;20.40;;;5.87;;